Time;durP1;ratioP1;P1;durP2;ratioP2;P2;SDS_P1;SDS_P2;PMS_P1;PMS_P2;Temp;Humidity;BMP_temperature;BMP_pressure;BME280_temperature;BME280_humidity;BME280_pressure;Samples;Min_cycle;Max_cycle;Signal;HPM_P1;HPM_P2
2023/05/19 00:01:29;;;;;;;9.70;9.00;;;9.50;99.90;;;;;;5031687;28;20183;-65
2023/05/19 00:04:00;;;;;;;9.90;8.57;;;9.40;99.90;;;;;;5032370;28;20176;-64
2023/05/19 00:06:30;;;;;;;10.70;8.17;;;9.30;99.90;;;;;;5032852;28;20288;-65
2023/05/19 00:09:00;;;;;;;10.83;9.83;;;9.30;99.90;;;;;;5032353;28;20199;-65
2023/05/19 00:11:27;;;;;;;11.13;9.83;;;9.30;99.90;;;;;;5025941;28;20190;-64
2023/05/19 00:13:54;;;;;;;9.60;8.70;;;9.20;99.90;;;;;;5032483;28;20539;-65
2023/05/19 00:16:21;;;;;;;10.17;9.20;;;9.20;99.90;;;;;;5031732;28;20171;-65
2023/05/19 00:18:47;;;;;;;10.20;9.23;;;9.10;99.90;;;;;;5031953;28;20266;-65
2023/05/19 00:21:12;;;;;;;9.20;8.50;;;9.10;99.90;;;;;;5031978;28;20234;-64
2023/05/19 00:23:38;;;;;;;9.37;8.47;;;9.10;99.90;;;;;;5032478;28;20641;-65
2023/05/19 00:26:04;;;;;;;9.27;8.43;;;9.00;99.90;;;;;;5032146;28;20443;-64
2023/05/19 00:28:29;;;;;;;9.13;8.37;;;9.00;99.90;;;;;;5032123;28;20656;-64
2023/05/19 00:30:55;;;;;;;11.50;10.47;;;8.90;99.90;;;;;;5031246;28;20237;-64
2023/05/19 00:33:20;;;;;;;9.60;9.00;;;8.90;99.90;;;;;;5032066;28;20246;-65
2023/05/19 00:35:46;;;;;;;10.50;9.23;;;8.80;99.90;;;;;;5031995;28;20657;-65
2023/05/19 00:38:12;;;;;;;9.83;9.03;;;8.80;99.90;;;;;;5032059;28;20171;-64
2023/05/19 00:40:37;;;;;;;11.90;9.50;;;8.70;99.90;;;;;;5031606;28;20629;-64
2023/05/19 00:43:04;;;;;;;8.50;7.60;;;8.60;99.90;;;;;;5031782;28;20176;-64
2023/05/19 00:45:30;;;;;;;10.30;8.10;;;8.50;99.90;;;;;;5031640;28;20210;-64
2023/05/19 00:47:56;;;;;;;13.53;9.03;;;8.30;99.90;;;;;;5031653;28;20653;-64
2023/05/19 00:50:23;;;;;;;11.70;9.23;;;8.30;99.90;;;;;;5031210;28;20195;-65
2023/05/19 00:52:50;;;;;;;8.73;7.90;;;8.20;99.90;;;;;;5031841;28;20170;-64
2023/05/19 00:55:16;;;;;;;9.37;8.30;;;8.20;99.90;;;;;;5031873;28;20229;-64
2023/05/19 00:57:42;;;;;;;9.53;8.43;;;8.20;99.90;;;;;;5031479;28;20289;-64
2023/05/19 01:00:10;;;;;;;11.13;8.53;;;8.30;99.90;;;;;;5030917;28;20199;-64
2023/05/19 01:02:38;;;;;;;10.00;8.23;;;8.30;99.90;;;;;;5031721;28;20671;-63
2023/05/19 01:05:05;;;;;;;8.97;8.07;;;8.30;99.90;;;;;;5031373;28;20282;-65
2023/05/19 01:07:31;;;;;;;9.33;8.20;;;8.30;99.90;;;;;;5031581;28;20513;-65
2023/05/19 01:09:57;;;;;;;8.37;7.50;;;8.20;99.90;;;;;;5030657;28;20586;-65
2023/05/19 01:12:24;;;;;;;9.23;8.43;;;8.20;99.90;;;;;;5031297;28;20186;-65
2023/05/19 01:14:50;;;;;;;10.93;9.83;;;8.20;99.90;;;;;;5031415;28;20175;-64
2023/05/19 01:17:28;;;;;;;9.90;9.00;;;8.10;99.90;;;;;;5031126;28;20660;-64
2023/05/19 01:20:14;;;;;;;10.20;9.00;;;8.10;99.90;;;;;;5023834;28;20195;-65
2023/05/19 01:22:53;;;;;;;11.63;9.30;;;8.00;99.90;;;;;;5031020;28;20175;-65
2023/05/19 01:25:34;;;;;;;11.30;9.23;;;7.90;99.90;;;;;;5017150;28;20194;-65
2023/05/19 01:28:19;;;;;;;10.90;9.27;;;8.00;99.90;;;;;;5031008;28;20519;-64
2023/05/19 01:30:51;;;;;;;16.57;9.47;;;8.00;99.90;;;;;;5030599;28;20227;-65
2023/05/19 01:33:19;;;;;;;14.10;9.00;;;8.00;99.90;;;;;;5031286;28;20672;-64
2023/05/19 01:35:47;;;;;;;11.37;10.27;;;8.00;99.90;;;;;;5030746;28;20183;-65
2023/05/19 01:38:16;;;;;;;9.60;8.53;;;8.00;99.90;;;;;;5031034;28;20207;-64
2023/05/19 01:40:43;;;;;;;9.67;8.63;;;8.00;99.90;;;;;;5029881;28;20210;-64
2023/05/19 01:43:11;;;;;;;15.23;10.20;;;8.00;99.90;;;;;;5030949;28;20262;-64
2023/05/19 01:45:37;;;;;;;9.90;8.90;;;7.90;99.90;;;;;;5030475;28;20210;-64
2023/05/19 01:48:04;;;;;;;10.77;9.63;;;7.90;99.90;;;;;;5030878;28;20171;-64
2023/05/19 01:50:30;;;;;;;12.43;9.30;;;8.00;99.90;;;;;;5029927;28;20249;-65
2023/05/19 01:52:56;;;;;;;10.00;9.20;;;7.90;99.90;;;;;;5031133;28;20202;-65
2023/05/19 01:55:22;;;;;;;13.70;9.83;;;7.90;99.90;;;;;;5031192;28;20183;-65
2023/05/19 01:58:12;;;;;;;10.50;9.50;;;7.90;99.90;;;;;;5030863;28;20681;-65
2023/05/19 02:01:14;;;;;;;14.63;8.90;;;7.80;99.90;;;;;;5014457;28;20226;-64
2023/05/19 02:03:59;;;;;;;9.77;8.97;;;7.80;99.90;;;;;;5022707;28;20671;-65
2023/05/19 02:06:47;;;;;;;10.73;9.47;;;7.80;99.90;;;;;;5031121;28;20742;-65
2023/05/19 02:09:31;;;;;;;10.27;9.13;;;7.80;99.90;;;;;;5030314;28;20212;-65
2023/05/19 02:12:10;;;;;;;10.17;9.30;;;7.70;99.90;;;;;;5031610;28;20207;-65
2023/05/19 02:14:51;;;;;;;10.37;9.30;;;7.70;99.90;;;;;;5030745;28;20191;-64
2023/05/19 02:17:19;;;;;;;14.93;10.10;;;7.70;99.90;;;;;;5030616;28;20187;-65
2023/05/19 02:19:45;;;;;;;12.07;9.13;;;7.70;99.90;;;;;;5030627;28;20249;-65
2023/05/19 02:22:10;;;;;;;12.00;10.20;;;7.60;99.90;;;;;;5030359;28;20584;-65
2023/05/19 02:24:36;;;;;;;12.00;9.87;;;7.60;99.90;;;;;;5030950;28;20229;-65
2023/05/19 02:27:02;;;;;;;10.83;9.73;;;7.60;99.90;;;;;;5028777;28;20689;-65
2023/05/19 02:29:28;;;;;;;11.37;10.20;;;7.60;99.90;;;;;;5030506;28;20198;-65
2023/05/19 02:31:53;;;;;;;12.57;10.00;;;7.60;99.90;;;;;;5030366;28;20171;-65
2023/05/19 02:34:19;;;;;;;11.30;9.50;;;7.70;99.90;;;;;;5031452;28;20357;-75
2023/05/19 02:36:48;;;;;;;11.60;10.40;;;7.60;99.90;;;;;;5030861;28;20175;-69
2023/05/19 02:39:14;;;;;;;12.30;10.23;;;7.70;99.90;;;;;;5031883;28;20199;-70
2023/05/19 02:41:40;;;;;;;13.03;10.77;;;7.60;99.90;;;;;;5031649;28;20180;-69
2023/05/19 02:44:06;;;;;;;12.03;9.80;;;7.60;99.90;;;;;;5031901;28;20263;-68
2023/05/19 02:46:32;;;;;;;10.77;9.67;;;7.70;99.90;;;;;;5031611;28;20207;-72
2023/05/19 02:48:58;;;;;;;11.77;10.57;;;7.70;99.90;;;;;;5030849;28;20196;-72
2023/05/19 02:51:24;;;;;;;17.03;10.37;;;7.60;99.90;;;;;;5029728;28;20178;-70
2023/05/19 02:53:50;;;;;;;11.17;10.17;;;7.60;99.90;;;;;;5032197;28;20167;-69
2023/05/19 02:56:16;;;;;;;14.67;9.87;;;7.70;99.90;;;;;;5034174;28;20189;-71
2023/05/19 02:58:42;;;;;;;12.77;9.80;;;7.60;99.90;;;;;;5033863;28;20222;-70
2023/05/19 03:01:08;;;;;;;11.30;10.20;;;7.60;99.90;;;;;;5034342;28;20182;-72
2023/05/19 03:03:34;;;;;;;10.57;9.67;;;7.50;99.90;;;;;;5035424;28;20194;-69
2023/05/19 03:06:00;;;;;;;16.20;10.17;;;7.50;99.90;;;;;;5035325;28;20215;-71
2023/05/19 03:08:26;;;;;;;11.43;10.33;;;7.50;99.90;;;;;;5034588;28;20413;-72
2023/05/19 03:10:52;;;;;;;13.83;10.13;;;7.50;99.90;;;;;;5035420;28;20257;-71
2023/05/19 03:13:18;;;;;;;12.50;9.33;;;7.50;99.90;;;;;;5034753;28;20179;-72
2023/05/19 03:15:44;;;;;;;12.43;10.10;;;7.50;99.90;;;;;;5035045;28;20179;-73
2023/05/19 03:18:11;;;;;;;11.57;10.00;;;7.40;99.90;;;;;;5035053;28;20237;-70
2023/05/19 03:20:37;;;;;;;16.53;9.23;;;7.40;99.90;;;;;;5034700;28;20210;-68
2023/05/19 03:23:02;;;;;;;13.43;9.70;;;7.30;99.90;;;;;;5034863;28;20179;-73
2023/05/19 03:25:28;;;;;;;14.73;9.77;;;7.30;99.90;;;;;;5034859;28;20680;-72
2023/05/19 03:27:54;;;;;;;11.67;9.73;;;7.30;99.90;;;;;;5034910;28;20238;-71
2023/05/19 03:30:21;;;;;;;10.53;9.47;;;7.30;99.90;;;;;;5033695;28;20195;-68
2023/05/19 03:32:46;;;;;;;11.40;10.27;;;7.30;99.90;;;;;;5035288;28;20187;-71
2023/05/19 03:35:12;;;;;;;11.67;10.37;;;7.20;99.90;;;;;;5034780;28;20176;-71
2023/05/19 03:37:38;;;;;;;10.93;9.83;;;7.20;99.90;;;;;;5034761;28;20179;-72
2023/05/19 03:40:04;;;;;;;10.73;9.57;;;7.30;99.90;;;;;;5034584;28;20223;-71
2023/05/19 03:42:30;;;;;;;11.60;10.50;;;7.30;99.90;;;;;;5034404;28;20232;-70
2023/05/19 03:44:56;;;;;;;11.30;10.30;;;7.30;99.90;;;;;;5033609;28;20176;-68
2023/05/19 03:47:21;;;;;;;11.10;10.03;;;7.30;99.90;;;;;;5034744;28;20203;-71
2023/05/19 03:49:47;;;;;;;10.83;9.50;;;7.30;99.90;;;;;;5034512;28;20191;-70
2023/05/19 03:52:13;;;;;;;11.33;10.10;;;7.30;99.90;;;;;;5033800;28;20673;-71
2023/05/19 03:54:41;;;;;;;13.47;10.13;;;7.30;99.90;;;;;;5034400;28;20203;-69
2023/05/19 03:57:07;;;;;;;10.87;9.87;;;7.30;99.90;;;;;;5034465;28;20250;-70
2023/05/19 03:59:34;;;;;;;12.10;10.17;;;7.30;99.90;;;;;;5034491;28;20195;-71
2023/05/19 04:01:59;;;;;;;13.53;11.33;;;7.30;99.90;;;;;;5034803;28;20171;-67
2023/05/19 04:04:27;;;;;;;16.73;10.03;;;7.40;99.90;;;;;;5034490;28;20183;-70
2023/05/19 04:06:52;;;;;;;12.90;10.50;;;7.50;99.90;;;;;;5034730;28;20523;-68
2023/05/19 04:09:18;;;;;;;11.77;10.57;;;7.50;99.90;;;;;;5032911;28;20629;-68
2023/05/19 04:11:44;;;;;;;15.17;10.40;;;7.50;99.90;;;;;;5034176;28;20210;-67
2023/05/19 04:14:11;;;;;;;14.43;11.13;;;7.50;99.90;;;;;;5032448;28;20183;-68
2023/05/19 04:16:37;;;;;;;13.47;10.67;;;7.50;99.90;;;;;;5034127;28;20183;-70
2023/05/19 04:19:03;;;;;;;12.17;11.10;;;7.50;99.90;;;;;;5030828;28;20625;-68
2023/05/19 04:21:29;;;;;;;13.37;11.03;;;7.60;99.90;;;;;;5034188;28;20178;-69
2023/05/19 04:23:54;;;;;;;10.97;9.97;;;7.60;99.90;;;;;;5031517;28;20214;-65
2023/05/19 04:26:21;;;;;;;16.23;11.60;;;7.70;99.90;;;;;;5030637;28;20199;-64
2023/05/19 04:28:47;;;;;;;12.00;10.80;;;7.70;99.90;;;;;;5030585;28;20176;-65
2023/05/19 04:31:14;;;;;;;11.27;10.27;;;7.80;99.90;;;;;;5031850;28;20520;-65
2023/05/19 04:33:40;;;;;;;13.00;9.90;;;7.90;99.90;;;;;;5031571;28;20176;-64
2023/05/19 04:36:12;;;;;;;14.77;10.07;;;8.00;99.90;;;;;;5032100;28;20547;-64
2023/05/19 04:38:38;;;;;;;17.10;11.00;;;8.10;99.90;;;;;;5031540;28;20309;-64
2023/05/19 04:41:05;;;;;;;12.23;10.80;;;8.20;99.90;;;;;;5031854;28;20203;-65
2023/05/19 04:43:30;;;;;;;12.70;10.17;;;8.30;99.90;;;;;;5031262;28;20657;-64
2023/05/19 04:45:57;;;;;;;15.83;10.07;;;8.30;99.90;;;;;;5031369;28;20208;-64
2023/05/19 04:48:22;;;;;;;16.20;10.97;;;8.40;99.90;;;;;;5031316;28;20302;-64
2023/05/19 04:50:50;;;;;;;14.27;10.47;;;8.50;99.90;;;;;;5031446;28;20704;-64
2023/05/19 04:53:16;;;;;;;14.10;10.57;;;8.60;99.90;;;;;;5031697;28;20202;-65
2023/05/19 04:55:43;;;;;;;11.47;10.07;;;8.60;99.90;;;;;;5030884;28;20179;-64
2023/05/19 04:58:08;;;;;;;11.80;10.60;;;8.70;99.90;;;;;;5031377;28;20183;-64
2023/05/19 05:00:34;;;;;;;10.80;9.83;;;8.70;99.90;;;;;;5030323;28;20214;-64
2023/05/19 05:03:03;;;;;;;12.80;10.27;;;8.90;99.90;;;;;;5031631;28;20183;-65
2023/05/19 05:05:29;;;;;;;11.80;9.73;;;9.10;99.90;;;;;;5031432;28;20225;-64
2023/05/19 05:07:56;;;;;;;11.20;10.30;;;9.40;99.90;;;;;;5031360;28;20183;-65
2023/05/19 05:10:22;;;;;;;9.77;8.57;;;9.50;99.90;;;;;;5030618;28;20245;-64
2023/05/19 05:12:48;;;;;;;9.60;8.17;;;9.70;99.90;;;;;;5030975;28;20622;-65
2023/05/19 05:15:14;;;;;;;15.37;8.50;;;9.90;99.90;;;;;;5031323;28;20171;-65
2023/05/19 05:17:40;;;;;;;9.47;7.90;;;10.10;99.90;;;;;;5030443;28;20222;-65
2023/05/19 05:20:06;;;;;;;10.77;7.77;;;10.30;99.90;;;;;;5030699;28;20199;-65
2023/05/19 05:22:32;;;;;;;10.17;9.23;;;10.50;99.90;;;;;;5031190;28;20591;-65
2023/05/19 05:24:59;;;;;;;8.30;7.57;;;10.70;99.90;;;;;;5031416;28;20187;-65
2023/05/19 05:27:25;;;;;;;8.50;7.40;;;10.80;99.90;;;;;;5030663;28;20230;-65
2023/05/19 05:29:52;;;;;;;10.13;7.47;;;10.90;99.90;;;;;;5030516;28;20199;-65
2023/05/19 05:32:17;;;;;;;7.63;6.93;;;11.00;99.90;;;;;;5031186;28;20176;-65
2023/05/19 05:34:43;;;;;;;6.97;6.27;;;11.20;99.90;;;;;;5031018;28;20577;-65
2023/05/19 05:37:09;;;;;;;6.97;6.33;;;11.40;99.90;;;;;;5029407;28;20225;-65
2023/05/19 05:39:35;;;;;;;7.87;7.23;;;11.70;99.90;;;;;;5028218;28;20207;-65
2023/05/19 05:42:00;;;;;;;6.37;5.77;;;11.90;99.90;;;;;;5029550;28;20183;-65
2023/05/19 05:44:26;;;;;;;9.33;6.23;;;12.10;99.90;;;;;;5029946;28;20700;-65
2023/05/19 05:46:52;;;;;;;7.93;5.57;;;12.40;99.90;;;;;;5030714;28;20253;-65
2023/05/19 05:49:17;;;;;;;5.60;5.10;;;12.80;99.90;;;;;;5028478;28;20219;-65
2023/05/19 05:51:43;;;;;;;7.40;5.13;;;13.10;99.90;;;;;;5030257;28;20254;-64
2023/05/19 05:54:11;;;;;;;7.40;5.80;;;13.50;99.90;;;;;;5012020;28;20319;-68
2023/05/19 05:56:37;;;;;;;6.37;5.30;;;13.90;99.90;;;;;;5016701;28;20181;-65
2023/05/19 05:59:03;;;;;;;6.80;5.17;;;14.50;99.90;;;;;;5030539;28;20286;-65
2023/05/19 06:01:32;;;;;;;7.30;5.03;;;14.80;99.90;;;;;;5030725;28;20183;-65
2023/05/19 06:03:57;;;;;;;5.87;5.37;;;15.10;99.90;;;;;;5030675;28;20720;-65
2023/05/19 06:06:23;;;;;;;5.57;5.17;;;15.40;99.90;;;;;;5030792;28;20395;-65
2023/05/19 06:08:48;;;;;;;5.50;5.00;;;15.80;99.90;;;;;;5024765;28;20188;-65
2023/05/19 06:11:14;;;;;;;5.40;4.57;;;16.00;99.90;;;;;;5023187;28;20183;-65
2023/05/19 06:13:40;;;;;;;6.83;4.67;;;16.40;99.90;;;;;;5030551;28;20254;-64
2023/05/19 06:16:06;;;;;;;4.20;3.90;;;16.60;99.90;;;;;;5030418;28;20182;-65
2023/05/19 06:18:32;;;;;;;5.57;4.30;;;16.90;99.90;;;;;;5030483;28;20529;-65
2023/05/19 06:20:57;;;;;;;8.97;4.97;;;17.30;99.90;;;;;;5030545;28;20230;-65
2023/05/19 06:23:24;;;;;;;7.25;4.50;;;17.60;99.90;;;;;;5030514;28;20180;-65
2023/05/19 06:25:49;;;;;;;4.82;4.18;;;17.70;99.90;;;;;;5030271;28;20249;-65
2023/05/19 06:28:15;;;;;;;4.03;3.63;;;17.90;99.90;;;;;;5031622;28;20188;-65
2023/05/19 06:30:40;;;;;;;4.50;4.17;;;17.80;99.90;;;;;;5033935;28;20195;-65
2023/05/19 06:33:06;;;;;;;4.00;3.75;;;18.10;99.90;;;;;;5033842;28;20175;-66
2023/05/19 06:35:32;;;;;;;4.03;3.72;;;18.40;99.90;;;;;;5034225;28;20476;-65
2023/05/19 06:37:58;;;;;;;5.07;4.20;;;18.90;99.90;;;;;;5033932;28;20180;-65
2023/05/19 06:40:23;;;;;;;4.60;4.20;;;19.30;99.90;;;;;;5032963;28;20206;-65
2023/05/19 06:42:49;;;;;;;4.35;3.40;;;19.70;99.90;;;;;;5034407;28;20176;-65
2023/05/19 06:45:14;;;;;;;5.68;4.35;;;20.10;99.90;;;;;;5034323;28;20653;-65
2023/05/19 06:47:41;;;;;;;4.20;3.80;;;20.40;99.90;;;;;;5034131;28;20893;-65
2023/05/19 06:50:08;;;;;;;4.40;3.88;;;20.50;99.90;;;;;;5033063;28;20199;-66
2023/05/19 06:52:34;;;;;;;3.50;3.20;;;21.00;99.90;;;;;;5034114;28;20638;-66
2023/05/19 06:54:59;;;;;;;4.50;3.95;;;21.20;99.90;;;;;;5033950;28;20191;-65
2023/05/19 06:57:25;;;;;;;4.40;4.00;;;21.60;99.90;;;;;;5033350;28;20190;-65
2023/05/19 06:59:50;;;;;;;3.67;3.35;;;22.00;99.90;;;;;;5023282;28;20204;-65
2023/05/19 07:02:16;;;;;;;4.00;3.58;;;22.00;99.90;;;;;;5030939;28;20207;-66
2023/05/19 07:04:42;;;;;;;4.72;3.88;;;22.20;99.90;;;;;;5033755;28;20183;-65
2023/05/19 07:07:07;;;;;;;6.78;3.92;;;22.20;99.90;;;;;;5033449;28;20195;-65
2023/05/19 07:09:33;;;;;;;4.82;4.10;;;22.20;99.90;;;;;;5032873;28;20213;-66
2023/05/19 07:12:00;;;;;;;4.63;4.22;;;22.10;99.90;;;;;;5033184;28;20179;-65
2023/05/19 07:14:26;;;;;;;3.90;3.42;;;22.00;99.90;;;;;;5033984;28;20237;-64
2023/05/19 07:16:51;;;;;;;4.60;4.20;;;22.00;99.90;;;;;;5033493;28;20168;-65
2023/05/19 07:19:20;;;;;;;5.28;4.80;;;22.10;99.90;;;;;;5033436;28;20207;-66
2023/05/19 07:21:46;;;;;;;4.85;3.90;;;22.20;99.90;;;;;;5033051;28;20368;-66
2023/05/19 07:24:12;;;;;;;4.32;3.28;;;22.10;99.90;;;;;;5033215;28;20269;-65
2023/05/19 07:26:38;;;;;;;4.53;3.83;;;22.30;99.90;;;;;;5033198;28;20243;-65
2023/05/19 07:29:03;;;;;;;6.57;3.72;;;22.40;99.90;;;;;;5033024;28;20195;-66
2023/05/19 07:31:29;;;;;;;3.63;3.30;;;22.70;99.90;;;;;;5033170;28;20464;-66
2023/05/19 07:33:55;;;;;;;3.58;3.28;;;22.90;99.90;;;;;;5032823;28;20197;-65
2023/05/19 07:36:21;;;;;;;4.00;2.90;;;23.20;99.90;;;;;;5032048;28;20274;-66
2023/05/19 07:38:47;;;;;;;4.03;3.58;;;23.60;99.90;;;;;;5031988;28;20283;-66
2023/05/19 07:41:12;;;;;;;3.90;3.60;;;23.60;99.90;;;;;;5032005;28;20183;-66
2023/05/19 07:43:38;;;;;;;6.45;3.78;;;23.60;99.90;;;;;;5031366;28;20186;-66
2023/05/19 07:46:05;;;;;;;6.22;3.50;;;23.90;99.90;;;;;;5032789;28;20226;-65
2023/05/19 07:48:30;;;;;;;5.32;3.88;;;24.00;99.90;;;;;;5033026;28;20181;-65
2023/05/19 07:50:56;;;;;;;4.78;4.22;;;24.20;99.90;;;;;;5032350;28;20199;-66
2023/05/19 07:53:22;;;;;;;22.65;4.38;;;24.30;99.90;;;;;;5032360;28;20187;-66
2023/05/19 07:55:48;;;;;;;4.82;3.30;;;24.30;99.90;;;;;;5030732;28;20266;-65
2023/05/19 07:58:14;;;;;;;8.02;4.20;;;23.90;99.90;;;;;;5026090;28;20668;-65
2023/05/19 08:00:44;;;;;;;7.18;3.60;;;24.20;99.90;;;;;;5030268;28;20195;-65
2023/05/19 08:03:10;;;;;;;8.50;4.55;;;24.20;99.90;;;;;;5027028;28;20673;-66
2023/05/19 08:05:36;;;;;;;4.53;3.47;;;23.90;99.90;;;;;;5031291;28;20210;-65
2023/05/19 08:08:02;;;;;;;4.00;3.40;;;24.00;99.90;;;;;;5032069;28;20195;-65
2023/05/19 08:10:28;;;;;;;5.13;3.65;;;24.10;99.90;;;;;;5032632;28;20215;-65
2023/05/19 08:12:55;;;;;;;6.40;3.72;;;24.40;99.90;;;;;;5032554;28;20249;-66
2023/05/19 08:15:20;;;;;;;7.03;3.88;;;25.00;99.90;;;;;;5031725;28;20918;-65
2023/05/19 08:17:46;;;;;;;5.38;4.95;;;25.40;99.90;;;;;;5032176;28;20175;-65
2023/05/19 08:20:12;;;;;;;4.13;3.83;;;25.60;99.90;;;;;;5031218;28;20200;-65
2023/05/19 08:22:38;;;;;;;6.10;3.95;;;25.60;99.90;;;;;;5031996;28;20176;-65
2023/05/19 08:25:04;;;;;;;5.15;4.13;;;25.50;99.90;;;;;;5032128;28;20179;-65
2023/05/19 08:27:30;;;;;;;5.30;4.90;;;25.70;99.90;;;;;;5025915;28;20203;-65
2023/05/19 08:29:56;;;;;;;5.95;3.58;;;26.10;99.90;;;;;;5018112;28;20199;-65
2023/05/19 08:32:22;;;;;;;6.45;3.33;;;26.10;99.40;;;;;;5031537;28;20179;-65
2023/05/19 08:34:47;;;;;;;5.38;3.67;;;26.20;98.40;;;;;;5032064;28;20191;-65
2023/05/19 08:37:13;;;;;;;5.75;3.13;;;26.20;97.00;;;;;;5032161;28;20770;-65
2023/05/19 08:39:39;;;;;;;4.82;3.03;;;26.20;97.90;;;;;;5031331;28;20294;-65
2023/05/19 08:42:06;;;;;;;7.65;3.42;;;26.50;98.50;;;;;;5030239;28;20334;-65
2023/05/19 08:44:32;;;;;;;5.47;3.13;;;26.60;95.70;;;;;;5031986;28;20657;-65
2023/05/19 08:47:02;;;;;;;7.07;3.17;;;26.60;95.60;;;;;;5031287;28;20214;-65
2023/05/19 08:49:32;;;;;;;4.65;3.15;;;26.50;97.00;;;;;;5031116;28;20207;-66
2023/05/19 08:52:20;;;;;;;4.78;3.17;;;26.90;97.40;;;;;;5028357;28;20179;-65
2023/05/19 08:55:03;;;;;;;3.53;3.22;;;26.80;93.70;;;;;;5031724;28;20176;-65
2023/05/19 08:57:29;;;;;;;3.63;3.03;;;26.90;95.60;;;;;;5031438;28;20183;-65
2023/05/19 08:59:56;;;;;;;4.10;3.60;;;26.80;95.30;;;;;;5031420;28;20214;-65
2023/05/19 09:02:22;;;;;;;4.05;3.20;;;27.10;94.70;;;;;;5031341;28;20622;-65
2023/05/19 09:04:48;;;;;;;4.63;4.32;;;27.30;94.40;;;;;;5031729;28;20229;-65
2023/05/19 09:07:14;;;;;;;4.18;3.78;;;27.80;96.30;;;;;;5030776;28;20243;-66
2023/05/19 09:09:43;;;;;;;4.10;3.15;;;27.80;93.00;;;;;;5030904;28;20211;-65
2023/05/19 09:12:13;;;;;;;4.65;3.75;;;27.70;92.60;;;;;;5030300;28;20641;-65
2023/05/19 09:14:39;;;;;;;6.28;3.17;;;27.60;91.90;;;;;;5031733;28;20225;-64
2023/05/19 09:17:05;;;;;;;4.32;3.88;;;27.40;93.70;;;;;;5031616;28;20177;-65
2023/05/19 09:19:31;;;;;;;3.97;3.10;;;27.30;93.80;;;;;;5031244;28;20680;-65
2023/05/19 09:22:02;;;;;;;3.83;3.53;;;27.00;89.90;;;;;;5030947;28;20184;-65
2023/05/19 09:24:27;;;;;;;4.60;4.20;;;27.00;92.90;;;;;;5031353;28;20187;-65
2023/05/19 09:26:56;;;;;;;5.97;5.15;;;27.20;94.70;;;;;;5031693;28;20580;-65
2023/05/19 09:29:22;;;;;;;3.80;3.50;;;27.20;92.30;;;;;;5030877;28;20227;-66
2023/05/19 09:31:49;;;;;;;4.07;3.17;;;27.60;90.60;;;;;;5031027;28;20672;-65
2023/05/19 09:34:15;;;;;;;4.60;2.88;;;28.30;91.70;;;;;;5031039;28;20184;-66
2023/05/19 09:36:43;;;;;;;6.35;3.78;;;28.00;92.20;;;;;;5030900;28;20578;-66
2023/05/19 09:39:16;;;;;;;3.78;3.40;;;27.90;84.60;;;;;;5030642;28;20195;-66
2023/05/19 09:41:42;;;;;;;6.75;3.67;;;27.60;89.60;;;;;;5027500;28;20180;-66
2023/05/19 09:44:22;;;;;;;3.38;3.05;;;27.10;85.40;;;;;;5030652;28;20221;-65
2023/05/19 09:46:49;;;;;;;4.75;2.90;;;26.80;91.00;;;;;;5021635;28;20257;-66
2023/05/19 09:49:25;;;;;;;5.82;3.53;;;27.00;90.50;;;;;;5030931;28;20218;-66
2023/05/19 09:51:58;;;;;;;3.75;3.03;;;27.40;87.50;;;;;;5031256;28;20516;-65
2023/05/19 09:54:27;;;;;;;4.75;3.40;;;27.60;92.80;;;;;;5031492;28;20168;-65
2023/05/19 09:57:01;;;;;;;4.72;3.40;;;28.00;87.70;;;;;;5031330;28;20172;-66
2023/05/19 09:59:28;;;;;;;4.60;3.38;;;27.90;89.80;;;;;;5031032;28;20226;-65
2023/05/19 10:01:55;;;;;;;4.22;3.15;;;27.90;85.90;;;;;;5031209;28;20213;-65
2023/05/19 10:04:28;;;;;;;4.35;3.40;;;28.20;83.10;;;;;;5034804;28;20551;-65
2023/05/19 10:06:58;;;;;;;3.72;3.22;;;28.40;84.80;;;;;;5034281;28;20210;-66
2023/05/19 10:09:24;;;;;;;4.43;3.33;;;29.00;83.70;;;;;;5032865;28;20291;-65
2023/05/19 10:11:52;;;;;;;3.13;2.92;;;29.30;82.10;;;;;;5034070;28;20184;-66
2023/05/19 10:14:23;;;;;;;5.00;2.85;;;29.60;83.90;;;;;;5034065;28;20699;-65
2023/05/19 10:16:53;;;;;;;3.55;2.70;;;30.10;85.00;;;;;;5034576;28;20211;-65
2023/05/19 10:19:23;;;;;;;3.00;2.50;;;30.20;73.70;;;;;;5034522;28;20191;-66
2023/05/19 10:21:49;;;;;;;4.07;2.60;;;30.20;82.30;;;;;;5033596;28;20207;-65
2023/05/19 10:24:16;;;;;;;6.03;2.95;;;30.30;80.40;;;;;;5034414;28;20175;-65
2023/05/19 10:26:50;;;;;;;3.47;3.10;;;30.20;76.40;;;;;;5034682;28;20282;-66
2023/05/19 10:29:19;;;;;;;3.78;2.50;;;30.10;75.00;;;;;;5034407;28;20195;-65
2023/05/19 10:31:49;;;;;;;4.35;3.05;;;29.90;71.50;;;;;;5034756;28;20175;-65
2023/05/19 10:34:20;;;;;;;3.38;2.70;;;30.00;78.00;;;;;;5034301;28;20170;-66
2023/05/19 10:37:10;;;;;;;5.65;2.85;;;29.80;74.00;;;;;;5034702;28;20241;-66
2023/05/19 10:39:40;;;;;;;4.68;2.78;;;29.30;73.50;;;;;;5034072;28;20193;-66
2023/05/19 10:42:18;;;;;;;3.20;2.72;;;29.50;77.00;;;;;;5034417;28;20218;-66
2023/05/19 10:45:15;;;;;;;3.85;3.50;;;29.90;74.60;;;;;;5034689;28;20637;-66
2023/05/19 10:47:40;;;;;;;3.53;2.95;;;29.40;70.30;;;;;;5034624;28;20198;-66
2023/05/19 10:50:07;;;;;;;3.22;2.55;;;29.30;75.70;;;;;;5034364;28;20192;-66
2023/05/19 10:52:37;;;;;;;6.00;3.33;;;29.40;77.40;;;;;;5034518;28;20202;-65
2023/05/19 10:55:03;;;;;;;4.25;2.90;;;29.30;70.40;;;;;;5034589;28;20641;-65
2023/05/19 10:57:31;;;;;;;2.97;2.75;;;29.10;70.10;;;;;;5034529;28;20172;-65
2023/05/19 10:59:59;;;;;;;5.63;2.97;;;29.20;84.40;;;;;;5034149;28;20215;-65
2023/05/19 11:02:46;;;;;;;2.78;2.58;;;29.20;76.20;;;;;;5034041;28;20646;-65
2023/05/19 11:05:17;;;;;;;5.22;2.63;;;29.60;73.00;;;;;;5034084;28;20206;-66
2023/05/19 11:07:55;;;;;;;3.55;3.25;;;30.00;71.20;;;;;;5033922;28;20557;-66
2023/05/19 11:10:24;;;;;;;4.80;2.88;;;29.50;71.50;;;;;;5033647;28;20225;-66
2023/05/19 11:12:50;;;;;;;4.82;2.72;;;29.20;70.10;;;;;;5034294;28;20633;-65
2023/05/19 11:15:16;;;;;;;3.28;2.60;;;29.10;72.80;;;;;;5032849;28;20167;-66
2023/05/19 11:17:47;;;;;;;3.65;2.70;;;29.10;68.60;;;;;;5034159;28;20175;-65
2023/05/19 11:20:25;;;;;;;2.90;2.60;;;29.50;70.50;;;;;;5033520;28;20289;-65
2023/05/19 11:23:08;;;;;;;3.63;2.65;;;29.80;70.30;;;;;;5033373;28;20175;-66
2023/05/19 11:25:40;;;;;;;6.40;3.05;;;30.30;66.60;;;;;;5033889;28;20175;-66
2023/05/19 11:28:06;;;;;;;3.67;2.92;;;30.70;66.50;;;;;;5033648;28;20206;-66
2023/05/19 11:30:32;;;;;;;2.78;2.58;;;31.00;64.30;;;;;;5033342;28;20207;-65
2023/05/19 11:32:58;;;;;;;3.50;3.20;;;31.00;70.90;;;;;;5033764;28;20690;-66
2023/05/19 11:35:24;;;;;;;4.95;2.55;;;31.20;65.30;;;;;;5033545;28;20638;-66
2023/05/19 11:37:53;;;;;;;4.18;2.97;;;31.20;69.10;;;;;;5032817;28;20183;-66
2023/05/19 11:40:20;;;;;;;5.65;3.45;;;31.40;59.20;;;;;;5033134;28;20207;-65
2023/05/19 11:42:46;;;;;;;3.20;2.83;;;30.80;58.80;;;;;;5033573;28;20176;-65
2023/05/19 11:45:11;;;;;;;4.00;3.28;;;30.70;61.80;;;;;;5033347;28;20186;-65
2023/05/19 11:47:37;;;;;;;4.20;3.70;;;30.40;67.70;;;;;;5033696;28;20661;-65
2023/05/19 11:50:03;;;;;;;4.03;3.40;;;29.80;66.00;;;;;;5032788;28;20191;-64
2023/05/19 11:52:29;;;;;;;3.78;3.47;;;29.20;62.30;;;;;;5033448;28;20178;-66
2023/05/19 11:54:59;;;;;;;3.50;3.17;;;28.90;61.50;;;;;;5033367;28;20258;-65
2023/05/19 11:57:25;;;;;;;3.03;2.65;;;28.90;64.10;;;;;;5033252;28;20195;-64
2023/05/19 11:59:52;;;;;;;3.67;3.20;;;29.00;63.70;;;;;;5033198;28;20195;-65
2023/05/19 12:02:20;;;;;;;3.08;2.78;;;29.30;63.50;;;;;;5032721;28;20708;-66
2023/05/19 12:04:49;;;;;;;3.08;2.75;;;29.10;63.90;;;;;;5033270;28;20572;-65
2023/05/19 12:07:18;;;;;;;5.47;3.22;;;28.80;60.00;;;;;;5032830;28;20277;-65
2023/05/19 12:09:48;;;;;;;3.65;2.63;;;28.80;62.50;;;;;;5032609;28;20215;-65
2023/05/19 12:12:18;;;;;;;3.38;3.10;;;28.60;68.00;;;;;;5032752;28;20167;-66
2023/05/19 12:14:45;;;;;;;3.42;3.13;;;28.70;66.10;;;;;;5032898;28;20168;-65
2023/05/19 12:17:22;;;;;;;4.30;2.72;;;28.90;67.20;;;;;;5032506;28;20176;-66
2023/05/19 12:19:48;;;;;;;3.70;3.13;;;29.20;68.10;;;;;;5030930;28;20190;-65
2023/05/19 12:22:16;;;;;;;5.20;3.28;;;29.40;67.80;;;;;;5031133;28;20179;-65
2023/05/19 12:24:42;;;;;;;3.55;3.30;;;28.60;65.10;;;;;;5027484;28;20596;-65
2023/05/19 12:27:15;;;;;;;3.35;3.05;;;28.00;62.80;;;;;;5031587;28;20210;-64
2023/05/19 12:29:41;;;;;;;3.47;3.17;;;27.40;66.70;;;;;;5029894;28;20210;-65
2023/05/19 12:32:08;;;;;;;4.03;3.38;;;27.00;61.20;;;;;;5032363;28;20171;-66
2023/05/19 12:34:37;;;;;;;3.83;2.97;;;26.50;62.60;;;;;;5032360;28;20238;-66
2023/05/19 12:37:04;;;;;;;3.78;2.90;;;26.30;67.40;;;;;;5032598;28;20203;-66
2023/05/19 12:39:30;;;;;;;5.00;3.22;;;26.80;72.50;;;;;;5031851;28;20210;-65
2023/05/19 12:42:08;;;;;;;4.22;3.28;;;27.20;65.90;;;;;;5032760;28;20171;-66
2023/05/19 12:44:45;;;;;;;3.92;3.63;;;27.40;69.00;;;;;;5031496;28;20186;-65
2023/05/19 12:47:12;;;;;;;4.35;2.90;;;27.70;66.60;;;;;;5032074;28;20229;-65
2023/05/19 12:49:59;;;;;;;4.28;3.22;;;28.10;67.20;;;;;;5031332;28;20618;-65